Time;durP1;ratioP1;P1;durP2;ratioP2;P2;SDS_P1;SDS_P2;PMS_P1;PMS_P2;Temp;Humidity;BMP_temperature;BMP_pressure;BME280_temperature;BME280_humidity;BME280_pressure;Samples;Min_cycle;Max_cycle;Signal;HPM_P1;HPM_P2
2021/08/23 00:01:06;;;;;;;10.15;4.68;;;25.70;61.00;;;;;;5114162;28;20035;-75
2021/08/23 00:03:32;;;;;;;9.85;4.72;;;25.70;61.50;;;;;;5114924;28;20055;-73
2021/08/23 00:05:58;;;;;;;6.35;4.20;;;25.70;61.50;;;;;;5114416;28;20399;-75
2021/08/23 00:08:25;;;;;;;9.20;4.90;;;25.70;62.90;;;;;;5114716;28;20341;-75
2021/08/23 00:10:51;;;;;;;6.47;4.50;;;25.60;63.40;;;;;;5114967;28;20031;-75
2021/08/23 00:13:17;;;;;;;8.68;4.75;;;25.50;62.80;;;;;;5114876;28;20054;-75
2021/08/23 00:15:45;;;;;;;7.05;4.35;;;25.50;63.10;;;;;;5114754;28;20028;-75
2021/08/23 00:18:11;;;;;;;8.70;4.65;;;25.50;62.90;;;;;;5114447;28;20067;-75
2021/08/23 00:20:43;;;;;;;10.85;5.30;;;25.50;63.10;;;;;;5113963;28;20063;-72
2021/08/23 00:23:11;;;;;;;;;;;25.50;62.70;;;;;;5114694;28;20516;-75
2021/08/23 00:25:37;;;;;;;8.90;4.75;;;25.50;62.40;;;;;;5114264;28;19907;-75
2021/08/23 00:28:04;;;;;;;11.07;4.38;;;25.40;63.00;;;;;;5114510;28;20145;-75
2021/08/23 00:30:30;;;;;;;10.13;4.50;;;25.40;62.80;;;;;;5114406;28;20028;-75
2021/08/23 00:32:55;;;;;;;6.70;4.13;;;25.40;63.00;;;;;;5114113;28;20448;-75
2021/08/23 00:35:21;;;;;;;7.53;4.38;;;25.40;62.90;;;;;;5114268;28;20028;-75
2021/08/23 00:37:47;;;;;;;6.88;4.50;;;25.30;63.40;;;;;;5114068;28;20066;-75
2021/08/23 00:40:13;;;;;;;13.57;4.32;;;25.30;63.50;;;;;;5114106;28;20036;-74
2021/08/23 00:42:39;;;;;;;7.90;4.80;;;25.20;63.70;;;;;;5114285;28;20039;-75
2021/08/23 00:45:06;;;;;;;9.07;4.50;;;25.20;64.20;;;;;;5114196;28;20553;-75
2021/08/23 00:47:32;;;;;;;6.13;4.70;;;25.20;64.60;;;;;;5113996;28;20043;-75
2021/08/23 00:49:58;;;;;;;9.07;4.72;;;25.20;65.10;;;;;;5114452;28;20035;-75
2021/08/23 00:52:24;;;;;;;5.15;4.00;;;25.10;64.90;;;;;;5113880;28;20115;-75
2021/08/23 00:54:49;;;;;;;8.38;4.70;;;25.20;64.00;;;;;;5113977;28;20038;-75
2021/08/23 00:57:15;;;;;;;5.78;4.47;;;25.20;63.60;;;;;;5113978;28;20031;-75
2021/08/23 00:59:42;;;;;;;8.23;4.15;;;25.30;63.50;;;;;;5113487;28;20027;-75
2021/08/23 01:02:26;;;;;;;9.68;4.40;;;25.30;63.20;;;;;;5113966;28;20043;-75
2021/08/23 01:05:20;;;;;;;5.55;4.10;;;25.30;63.10;;;;;;5113906;28;20032;-75
2021/08/23 01:08:00;;;;;;;10.30;4.35;;;25.40;62.80;;;;;;5113871;28;20043;-75
2021/08/23 01:10:31;;;;;;;6.43;4.22;;;25.40;62.00;;;;;;5113881;28;20032;-75
2021/08/23 01:12:58;;;;;;;4.35;3.75;;;25.50;61.70;;;;;;5113576;28;20051;-75
2021/08/23 01:15:23;;;;;;;7.38;4.10;;;25.50;59.70;;;;;;5113732;28;20480;-75
2021/08/23 01:17:55;;;;;;;7.07;3.80;;;25.60;59.20;;;;;;5114043;28;20042;-75
2021/08/23 01:20:20;;;;;;;6.32;3.60;;;25.60;59.30;;;;;;5113925;28;20063;-75
2021/08/23 01:22:49;;;;;;;6.63;3.92;;;25.60;58.90;;;;;;5113675;28;20413;-75
2021/08/23 01:25:29;;;;;;;4.65;3.78;;;25.70;58.60;;;;;;5113700;28;20034;-75
2021/08/23 01:28:28;;;;;;;5.55;3.60;;;25.70;57.90;;;;;;5113634;28;20495;-75
2021/08/23 01:31:14;;;;;;;6.32;3.63;;;25.70;57.70;;;;;;5113775;28;20032;-75
2021/08/23 01:33:44;;;;;;;4.63;3.22;;;25.70;57.50;;;;;;5113870;28;20028;-75
2021/08/23 01:36:11;;;;;;;4.05;3.45;;;25.70;57.50;;;;;;5113622;28;20430;-75
2021/08/23 01:38:37;;;;;;;7.60;3.70;;;25.60;57.40;;;;;;5113171;28;20032;-75
2021/08/23 01:41:06;;;;;;;3.50;3.20;;;25.70;57.30;;;;;;5113638;28;20101;-75
2021/08/23 01:43:33;;;;;;;6.97;3.33;;;25.70;57.50;;;;;;5113387;28;20047;-73
2021/08/23 01:45:59;;;;;;;4.57;3.33;;;25.70;57.50;;;;;;5095419;28;20031;-75
2021/08/23 01:48:25;;;;;;;5.47;3.63;;;25.70;57.50;;;;;;5113323;28;20036;-75
2021/08/23 01:50:51;;;;;;;4.68;3.20;;;25.70;57.50;;;;;;5113626;28;20028;-76
2021/08/23 01:53:17;;;;;;;5.90;3.17;;;25.60;57.30;;;;;;5113511;28;20117;-76
2021/08/23 01:55:43;;;;;;;6.05;3.40;;;25.60;57.90;;;;;;5113564;28;20031;-75
2021/08/23 01:58:10;;;;;;;5.05;3.17;;;25.60;57.10;;;;;;5113359;28;20028;-75
2021/08/23 02:00:36;;;;;;;7.55;3.80;;;25.60;56.80;;;;;;5113374;28;20036;-75
2021/08/23 02:03:02;;;;;;;4.20;3.30;;;25.60;56.90;;;;;;5113184;28;20484;-75
2021/08/23 02:05:28;;;;;;;5.10;2.90;;;25.60;56.50;;;;;;5113178;28;20377;-75
2021/08/23 02:07:54;;;;;;;5.45;2.80;;;25.50;56.40;;;;;;5113430;28;20032;-75
2021/08/23 02:10:20;;;;;;;3.25;2.53;;;25.50;56.40;;;;;;5113389;28;20032;-74
2021/08/23 02:12:46;;;;;;;3.95;2.70;;;25.50;56.10;;;;;;5113102;28;20100;-75
2021/08/23 02:15:11;;;;;;;4.60;2.83;;;25.40;55.90;;;;;;5113237;28;20400;-74
2021/08/23 02:17:37;;;;;;;3.92;2.58;;;25.40;55.80;;;;;;5113295;28;20035;-75
2021/08/23 02:20:08;;;;;;;5.30;2.65;;;25.40;55.50;;;;;;5113275;28;20032;-75
2021/08/23 02:22:33;;;;;;;4.60;2.28;;;25.40;55.10;;;;;;5113068;28;20479;-75
2021/08/23 02:24:59;;;;;;;3.88;2.40;;;25.40;54.90;;;;;;5114966;28;20043;-74
2021/08/23 02:27:25;;;;;;;4.20;2.47;;;25.30;55.00;;;;;;5116491;28;20465;-74
2021/08/23 02:29:50;;;;;;;4.25;2.55;;;25.30;55.10;;;;;;5116581;28;20057;-75
2021/08/23 02:32:16;;;;;;;4.05;2.40;;;25.30;55.00;;;;;;5116513;28;20380;-76
2021/08/23 02:34:42;;;;;;;3.47;2.35;;;25.30;55.10;;;;;;5116260;28;20044;-74
2021/08/23 02:37:07;;;;;;;5.25;2.50;;;25.40;55.30;;;;;;5116409;28;20032;-75
2021/08/23 02:39:33;;;;;;;4.53;2.65;;;25.30;55.50;;;;;;5116588;28;20031;-76
2021/08/23 02:41:59;;;;;;;3.03;2.33;;;25.30;56.00;;;;;;5116479;28;20059;-74
2021/08/23 02:44:25;;;;;;;3.90;2.15;;;25.30;56.30;;;;;;5116298;28;20028;-76
2021/08/23 02:46:51;;;;;;;6.10;2.10;;;25.30;56.10;;;;;;5116553;28;20111;-74
2021/08/23 02:49:17;;;;;;;2.88;2.30;;;25.30;56.30;;;;;;5116280;28;20106;-75
2021/08/23 02:51:44;;;;;;;3.72;2.55;;;25.30;56.60;;;;;;5116485;28;20110;-74
2021/08/23 02:54:10;;;;;;;4.85;2.40;;;25.30;57.10;;;;;;5116247;28;20043;-75
2021/08/23 02:56:36;;;;;;;4.65;2.92;;;25.30;57.80;;;;;;5116196;28;20035;-75
2021/08/23 02:59:02;;;;;;;5.40;2.70;;;25.30;58.00;;;;;;5116532;28;20024;-73
2021/08/23 03:01:27;;;;;;;3.22;2.60;;;25.30;58.00;;;;;;5116288;28;20085;-76
2021/08/23 03:03:53;;;;;;;3.45;2.70;;;25.30;58.00;;;;;;5116180;28;20385;-76
2021/08/23 03:06:19;;;;;;;5.07;2.20;;;25.30;58.20;;;;;;5115940;28;20389;-75
2021/08/23 03:08:44;;;;;;;5.50;2.47;;;25.30;57.80;;;;;;5116201;28;20097;-75
2021/08/23 03:11:12;;;;;;;8.02;3.90;;;25.30;57.70;;;;;;5115755;28;20028;-74
2021/08/23 03:13:39;;;;;;;5.30;2.50;;;25.30;57.20;;;;;;5116485;28;20036;-75
2021/08/23 03:16:06;;;;;;;4.25;2.72;;;25.30;57.30;;;;;;5115999;28;20030;-75
2021/08/23 03:18:32;;;;;;;4.93;2.90;;;25.20;57.20;;;;;;5115750;28;20039;-75
2021/08/23 03:20:58;;;;;;;4.65;2.50;;;25.30;56.90;;;;;;5115720;28;20429;-75
2021/08/23 03:23:24;;;;;;;4.32;2.40;;;25.20;56.80;;;;;;5115745;28;20047;-75
2021/08/23 03:25:50;;;;;;;2.92;2.30;;;25.30;56.70;;;;;;5115762;28;20042;-75
2021/08/23 03:28:16;;;;;;;4.75;2.80;;;25.30;56.60;;;;;;5115429;28;20372;-76
2021/08/23 03:30:41;;;;;;;3.38;2.47;;;25.30;56.00;;;;;;5115330;28;20031;-75
2021/08/23 03:33:07;;;;;;;4.25;2.00;;;25.30;55.70;;;;;;5115604;28;20023;-75
2021/08/23 03:35:33;;;;;;;3.70;2.38;;;25.20;55.20;;;;;;5115234;28;20415;-75
2021/08/23 03:38:01;;;;;;;2.85;2.03;;;25.30;55.40;;;;;;5115501;28;20031;-75
2021/08/23 03:40:27;;;;;;;3.83;2.53;;;25.30;55.50;;;;;;5115454;28;20114;-76
2021/08/23 03:42:53;;;;;;;3.75;2.35;;;25.30;55.40;;;;;;5115236;28;20480;-75
2021/08/23 03:45:18;;;;;;;2.55;1.83;;;25.30;55.80;;;;;;5115207;28;20114;-75
2021/08/23 03:47:44;;;;;;;4.43;2.00;;;25.30;55.90;;;;;;5115145;28;20043;-74
2021/08/23 03:50:10;;;;;;;2.95;2.08;;;25.20;56.20;;;;;;5115197;28;20460;-75
2021/08/23 03:52:35;;;;;;;4.43;2.40;;;25.20;55.90;;;;;;5115227;28;20036;-76
2021/08/23 03:55:02;;;;;;;2.33;2.10;;;25.10;55.70;;;;;;5115186;28;20032;-75
2021/08/23 03:57:28;;;;;;;3.65;1.92;;;25.10;55.60;;;;;;5115088;28;20031;-73
2021/08/23 03:59:53;;;;;;;5.10;1.98;;;25.10;55.70;;;;;;5115015;28;20031;-75
2021/08/23 04:02:19;;;;;;;4.15;1.75;;;25.10;55.20;;;;;;5114975;28;20048;-74
2021/08/23 04:04:45;;;;;;;2.85;2.00;;;25.10;55.10;;;;;;5114824;28;20109;-74
2021/08/23 04:07:10;;;;;;;13.05;2.30;;;25.10;54.90;;;;;;5115037;28;20036;-75
2021/08/23 04:09:36;;;;;;;2.80;1.95;;;25.20;55.00;;;;;;5114894;28;20490;-75
2021/08/23 04:12:02;;;;;;;8.20;2.17;;;25.10;54.50;;;;;;5114493;28;20043;-75
2021/08/23 04:14:28;;;;;;;2.78;2.03;;;25.10;54.80;;;;;;5114473;28;20032;-77
2021/08/23 04:16:53;;;;;;;20.83;2.88;;;25.10;54.90;;;;;;5114622;28;20039;-80
2021/08/23 04:19:19;;;;;;;18.77;3.08;;;25.10;54.10;;;;;;5114443;28;20506;-79
2021/08/23 04:21:45;;;;;;;2.63;1.77;;;25.10;54.70;;;;;;5096072;28;20032;-79
2021/08/23 04:24:10;;;;;;;4.18;1.65;;;25.10;54.10;;;;;;5115036;28;20495;-74
2021/08/23 04:26:36;;;;;;;2.92;1.58;;;25.10;54.00;;;;;;5114403;28;20525;-79
2021/08/23 04:29:02;;;;;;;5.82;1.88;;;25.10;53.50;;;;;;5114287;28;20042;-77
2021/08/23 04:31:31;;;;;;;6.45;1.73;;;25.10;53.30;;;;;;5114222;28;20031;-79
2021/08/23 04:33:57;;;;;;;2.20;1.60;;;25.10;53.20;;;;;;5114440;28;20070;-77
2021/08/23 04:36:23;;;;;;;3.60;1.70;;;25.10;53.20;;;;;;5114345;28;20034;-78
2021/08/23 04:38:48;;;;;;;5.45;1.90;;;25.10;53.30;;;;;;5114073;28;20103;-79
2021/08/23 04:41:14;;;;;;;4.47;1.92;;;25.00;53.30;;;;;;5113926;28;20028;-78
2021/08/23 04:43:39;;;;;;;2.70;1.75;;;25.00;53.40;;;;;;5114041;28;20039;-79
2021/08/23 04:46:05;;;;;;;2.72;1.73;;;25.00;53.70;;;;;;5113933;28;20110;-78
2021/08/23 04:48:31;;;;;;;5.10;1.92;;;25.10;53.80;;;;;;5113740;28;20158;-78
2021/08/23 04:50:57;;;;;;;6.32;2.95;;;25.00;53.90;;;;;;5114217;28;20076;-79
2021/08/23 04:53:23;;;;;;;3.90;2.70;;;25.00;54.30;;;;;;5113859;28;20118;-78
2021/08/23 04:55:49;;;;;;;7.53;2.28;;;25.10;54.40;;;;;;5113950;28;20034;-78
2021/08/23 04:58:14;;;;;;;5.15;2.53;;;25.00;54.80;;;;;;5113892;28;20387;-76
2021/08/23 05:00:40;;;;;;;7.00;2.60;;;25.10;54.80;;;;;;5114147;28;20096;-79
2021/08/23 05:03:08;;;;;;;5.18;2.40;;;25.10;55.20;;;;;;5113912;28;20395;-76
2021/08/23 05:05:33;;;;;;;5.10;2.40;;;25.00;55.00;;;;;;5113605;28;20127;-79
2021/08/23 05:07:59;;;;;;;3.47;2.30;;;25.10;54.60;;;;;;5113734;28;20086;-79
2021/08/23 05:10:25;;;;;;;4.18;2.10;;;25.10;54.20;;;;;;5113792;28;20077;-76
2021/08/23 05:12:55;;;;;;;4.35;2.10;;;25.10;54.10;;;;;;5113924;28;20031;-78
2021/08/23 05:15:21;;;;;;;3.85;1.83;;;25.00;54.40;;;;;;5113933;28;20057;-67
2021/08/23 05:17:47;;;;;;;5.60;1.83;;;25.00;54.30;;;;;;5113947;28;20063;-66
2021/08/23 05:20:12;;;;;;;3.17;1.70;;;25.00;53.70;;;;;;5113359;28;20468;-66
2021/08/23 05:22:38;;;;;;;4.97;1.77;;;25.00;53.60;;;;;;5113770;28;20046;-68
2021/08/23 05:25:05;;;;;;;2.08;1.67;;;25.00;54.00;;;;;;5113512;28;20114;-67
2021/08/23 05:27:31;;;;;;;4.00;1.50;;;25.00;53.50;;;;;;5095476;28;20453;-67
2021/08/23 05:30:20;;;;;;;5.05;1.90;;;24.90;54.30;;;;;;5113534;28;20111;-72
2021/08/23 05:32:45;;;;;;;6.25;1.85;;;24.90;55.50;;;;;;5111634;28;20070;-66
2021/08/23 05:35:11;;;;;;;5.65;1.75;;;24.90;54.40;;;;;;5113565;28;20042;-67
2021/08/23 05:37:37;;;;;;;13.13;1.92;;;24.90;54.10;;;;;;5113278;28;20519;-66
2021/08/23 05:40:03;;;;;;;3.75;1.40;;;24.90;53.90;;;;;;5113450;28;20081;-67
2021/08/23 05:42:29;;;;;;;2.72;1.40;;;24.90;53.70;;;;;;5113229;28;20047;-67
2021/08/23 05:44:56;;;;;;;5.00;1.38;;;25.00;53.10;;;;;;5113519;28;20028;-66
2021/08/23 05:47:22;;;;;;;3.25;1.30;;;25.00;52.50;;;;;;5113463;28;20036;-66
2021/08/23 05:49:48;;;;;;;1.48;1.33;;;25.00;52.80;;;;;;5112725;28;20065;-79
2021/08/23 05:52:14;;;;;;;4.50;1.60;;;24.90;52.60;;;;;;5113626;28;20044;-79
2021/08/23 05:54:40;;;;;;;5.93;1.58;;;25.00;52.80;;;;;;5113403;28;20377;-84
2021/08/23 05:57:07;;;;;;;5.25;1.50;;;25.00;52.40;;;;;;5113573;28;20488;-86
2021/08/23 05:59:33;;;;;;;2.47;1.23;;;25.00;52.10;;;;;;5115045;28;20032;-89
2021/08/23 06:01:58;;;;;;;2.33;1.27;;;25.00;51.30;;;;;;5118309;28;20493;-85
2021/08/23 06:04:24;;;;;;;7.40;1.40;;;25.00;51.50;;;;;;5117316;28;20044;-74
2021/08/23 06:06:51;;;;;;;5.13;1.20;;;25.00;51.80;;;;;;5116847;28;20043;-84
2021/08/23 06:09:18;;;;;;;2.13;1.23;;;25.00;51.40;;;;;;5117449;28;20534;-80
2021/08/23 06:11:44;;;;;;;4.93;1.30;;;25.00;52.00;;;;;;5117252;28;20425;-81
2021/08/23 06:14:10;;;;;;;5.43;1.27;;;25.00;51.60;;;;;;5117220;28;20028;-80
2021/08/23 06:16:36;;;;;;;2.50;1.17;;;25.00;51.70;;;;;;5116949;28;20099;-81
2021/08/23 06:19:02;;;;;;;3.05;1.42;;;25.00;52.10;;;;;;5116877;28;20027;-80
2021/08/23 06:21:27;;;;;;;2.10;1.40;;;25.00;52.20;;;;;;5116922;28;20036;-80
2021/08/23 06:23:53;;;;;;;2.75;1.38;;;25.00;52.40;;;;;;5116733;28;20047;-79
2021/08/23 06:26:19;;;;;;;2.08;1.08;;;25.00;52.30;;;;;;5117026;28;20030;-79
2021/08/23 06:28:44;;;;;;;2.80;1.52;;;25.00;52.50;;;;;;5116743;28;20031;-80
2021/08/23 06:31:10;;;;;;;2.95;1.20;;;25.00;52.40;;;;;;5117049;28;20322;-81
2021/08/23 06:33:36;;;;;;;1.25;0.80;;;25.10;52.20;;;;;;5117105;28;20038;-80
2021/08/23 06:36:02;;;;;;;2.22;1.10;;;25.10;50.70;;;;;;5116883;28;20063;-79
2021/08/23 06:38:27;;;;;;;1.45;0.80;;;25.10;49.80;;;;;;5117016;28;20034;-81
2021/08/23 06:40:53;;;;;;;1.80;0.90;;;25.10;49.30;;;;;;5116780;28;20036;-82
2021/08/23 06:43:19;;;;;;;1.05;0.63;;;25.00;49.40;;;;;;5116669;28;20061;-83
2021/08/23 06:45:45;;;;;;;4.10;1.05;;;25.00;49.50;;;;;;5116698;28;20404;-74
2021/08/23 06:48:10;;;;;;;3.22;0.95;;;25.00;49.50;;;;;;5116278;28;20488;-74
2021/08/23 06:50:36;;;;;;;2.70;1.02;;;25.00;49.70;;;;;;5116351;28;20468;-74
2021/08/23 06:53:05;;;;;;;3.15;1.00;;;24.90;50.20;;;;;;5116315;28;20036;-73
2021/08/23 06:55:33;;;;;;;1.25;0.80;;;24.90;50.50;;;;;;5116410;28;20035;-74
2021/08/23 06:57:59;;;;;;;3.50;1.10;;;24.90;51.00;;;;;;5116279;28;20092;-74
2021/08/23 07:00:26;;;;;;;6.40;1.02;;;24.90;51.30;;;;;;5116231;28;20043;-73
2021/08/23 07:02:52;;;;;;;1.70;1.00;;;24.80;50.40;;;;;;5097553;28;20051;-72
2021/08/23 07:05:17;;;;;;;2.78;1.20;;;24.80;49.60;;;;;;5115686;28;20047;-72
2021/08/23 07:07:43;;;;;;;4.60;1.13;;;24.90;49.00;;;;;;5116220;28;20023;-73
2021/08/23 07:10:11;;;;;;;7.07;1.60;;;24.80;50.10;;;;;;5115392;28;20032;-74
2021/08/23 07:12:38;;;;;;;2.50;1.23;;;24.70;51.40;;;;;;5115810;28;20036;-73
2021/08/23 07:15:04;;;;;;;4.75;1.05;;;24.50;52.70;;;;;;5115976;28;20365;-73
2021/08/23 07:17:30;;;;;;;1.80;1.30;;;24.30;53.20;;;;;;5116398;28;20108;-73
2021/08/23 07:19:56;;;;;;;4.35;1.85;;;24.20;55.00;;;;;;5115968;28;20063;-73
2021/08/23 07:22:23;;;;;;;6.50;1.92;;;24.10;58.30;;;;;;5115551;28;20051;-73
2021/08/23 07:24:49;;;;;;;6.18;1.98;;;23.90;61.40;;;;;;5115761;28;20032;-73
2021/08/23 07:27:14;;;;;;;8.73;2.17;;;23.60;62.30;;;;;;5115785;28;20081;-72
2021/08/23 07:29:40;;;;;;;9.13;2.53;;;23.40;63.60;;;;;;5115780;28;20031;-72
2021/08/23 07:32:07;;;;;;;9.73;2.45;;;23.10;65.20;;;;;;5115459;28;20056;-73
2021/08/23 07:34:32;;;;;;;11.32;4.15;;;22.80;66.80;;;;;;5115944;28;20100;-73
2021/08/23 07:36:58;;;;;;;9.15;2.97;;;22.60;70.40;;;;;;5115376;28;20556;-72
2021/08/23 07:39:23;;;;;;;9.18;2.50;;;22.40;69.00;;;;;;5115577;28;20534;-73
2021/08/23 07:41:50;;;;;;;8.38;2.47;;;22.20;70.00;;;;;;5115462;28;20032;-72
2021/08/23 07:44:16;;;;;;;6.95;2.00;;;22.10;69.70;;;;;;5115380;28;20492;-73
2021/08/23 07:46:41;;;;;;;6.07;1.90;;;22.10;68.30;;;;;;5115050;28;20031;-72
2021/08/23 07:49:07;;;;;;;7.43;1.90;;;22.00;67.60;;;;;;5115342;28;20391;-72
2021/08/23 07:51:33;;;;;;;13.88;4.18;;;22.00;69.50;;;;;;5115388;28;20036;-72
2021/08/23 07:53:59;;;;;;;28.65;11.93;;;21.80;73.00;;;;;;5115209;28;20020;-72
2021/08/23 07:56:25;;;;;;;22.67;12.00;;;21.80;73.30;;;;;;5115216;28;20419;-71
2021/08/23 07:58:50;;;;;;;10.68;4.85;;;21.70;74.60;;;;;;5114705;28;20034;-72
2021/08/23 08:01:16;;;;;;;5.57;2.30;;;21.60;73.10;;;;;;5115150;28;20056;-73
2021/08/23 08:03:42;;;;;;;6.55;1.63;;;21.60;71.00;;;;;;5114942;28;20407;-72
2021/08/23 08:06:08;;;;;;;2.83;1.48;;;21.60;69.90;;;;;;5114419;28;20043;-72
2021/08/23 08:08:33;;;;;;;6.07;3.00;;;21.60;70.10;;;;;;5115013;28;20110;-72
2021/08/23 08:10:59;;;;;;;5.13;1.48;;;21.50;71.60;;;;;;5114565;28;20122;-73
2021/08/23 08:13:26;;;;;;;7.60;1.92;;;21.40;70.50;;;;;;5114896;28;20131;-72
2021/08/23 08:15:52;;;;;;;4.38;2.00;;;;;;;;;;5115371;28;20552;-73
2021/08/23 08:18:18;;;;;;;3.20;1.63;;;21.30;71.60;;;;;;5114581;28;20039;-73
2021/08/23 08:20:44;;;;;;;5.18;1.80;;;21.20;72.60;;;;;;5114976;28;20077;-73
2021/08/23 08:23:10;;;;;;;5.68;2.15;;;21.10;75.30;;;;;;5113993;28;20122;-73
2021/08/23 08:25:36;;;;;;;5.75;1.95;;;21.00;76.10;;;;;;5114678;28;20116;-72
2021/08/23 08:28:01;;;;;;;2.70;1.50;;;21.00;73.20;;;;;;5114620;28;20043;-73
2021/08/23 08:30:27;;;;;;;3.28;1.60;;;21.00;82.70;;;;;;5114605;28;20035;-73
2021/08/23 08:32:53;;;;;;;5.47;2.00;;;21.00;75.10;;;;;;5114581;28;20472;-73
2021/08/23 08:35:19;;;;;;;3.13;1.63;;;;;;;;;;5114449;28;20077;-73
2021/08/23 08:37:45;;;;;;;5.40;1.92;;;20.90;74.60;;;;;;5114396;28;20042;-73
2021/08/23 08:40:11;;;;;;;3.25;1.33;;;21.00;76.10;;;;;;5114378;28;20023;-72
2021/08/23 08:42:39;;;;;;;3.58;1.33;;;21.00;74.20;;;;;;5114307;28;20712;-74
2021/08/23 08:45:05;;;;;;;3.30;1.60;;;21.10;75.50;;;;;;5114138;28;20425;-74
2021/08/23 08:47:33;;;;;;;4.63;1.45;;;21.20;74.40;;;;;;5114192;28;20040;-71
2021/08/23 08:49:59;;;;;;;3.15;1.58;;;21.10;73.70;;;;;;5114202;28;20038;-74
2021/08/23 08:52:26;;;;;;;4.82;1.50;;;;;;;;;;5095766;28;20379;-73
2021/08/23 08:54:51;;;;;;;2.63;1.00;;;21.10;73.20;;;;;;5114241;28;20074;-73
2021/08/23 08:57:18;;;;;;;2.72;1.00;;;21.10;72.50;;;;;;5114447;28;20036;-73
2021/08/23 08:59:44;;;;;;;4.13;1.13;;;21.00;73.50;;;;;;5114143;28;20020;-70
2021/08/23 09:02:09;;;;;;;1.88;1.20;;;21.00;74.20;;;;;;5113918;28;20040;-73
2021/08/23 09:04:38;;;;;;;4.00;1.10;;;21.00;74.00;;;;;;5113881;28;20032;-73
2021/08/23 09:07:05;;;;;;;2.50;1.00;;;21.00;74.10;;;;;;5113703;28;20039;-73
2021/08/23 09:09:32;;;;;;;2.50;1.00;;;21.00;73.60;;;;;;5113934;28;20047;-71
2021/08/23 09:12:06;;;;;;;2.85;1.05;;;21.00;72.60;;;;;;5113867;28;20058;-71
2021/08/23 09:14:36;;;;;;;2.95;1.10;;;21.00;74.00;;;;;;5113888;28;20075;-73
2021/08/23 09:17:10;;;;;;;2.95;1.00;;;20.90;72.50;;;;;;5113668;28;20495;-73
2021/08/23 09:19:37;;;;;;;2.13;1.10;;;20.90;73.40;;;;;;5114231;28;20063;-71
